createdAt,value
2019-03-03T00:00:42.316Z,10.40
2019-03-03T00:03:10.728Z,10.50
2019-03-03T00:05:39.032Z,10.50
2019-03-03T00:08:07.375Z,10.50
2019-03-03T00:10:35.841Z,10.50
2019-03-03T00:13:04.142Z,10.50
2019-03-03T00:15:32.541Z,10.50
2019-03-03T00:18:00.868Z,10.60
2019-03-03T00:20:29.221Z,10.60
2019-03-03T00:22:57.524Z,10.60
2019-03-03T00:25:25.807Z,10.60
2019-03-03T00:27:54.090Z,10.60
2019-03-03T00:30:22.481Z,10.60
2019-03-03T00:32:50.754Z,10.50
2019-03-03T00:35:19.114Z,10.50
2019-03-03T00:37:49.060Z,10.50
2019-03-03T00:40:21.965Z,10.50
2019-03-03T00:42:51.199Z,10.50
2019-03-03T00:45:23.561Z,10.50
2019-03-03T00:47:56.473Z,10.40
2019-03-03T00:50:40.777Z,10.50
2019-03-03T00:53:22.779Z,10.40
2019-03-03T00:55:52.701Z,10.40
2019-03-03T00:58:22.628Z,10.40
2019-03-03T01:00:52.594Z,10.40
2019-03-03T01:03:25.171Z,10.30
2019-03-03T01:06:11.128Z,10.20
2019-03-03T01:08:49.603Z,10.20
2019-03-03T01:11:31.524Z,10.20
2019-03-03T01:14:13.590Z,10.20
2019-03-03T01:16:49.476Z,10.10
2019-03-03T01:19:19.647Z,10.10
2019-03-03T01:21:51.987Z,10.10
2019-03-03T01:24:21.931Z,10.10
2019-03-03T01:26:50.371Z,10.10
2019-03-03T01:29:18.904Z,10.10
2019-03-03T01:31:47.205Z,10.10
2019-03-03T01:34:15.562Z,10.10
2019-03-03T01:36:43.904Z,10.10
2019-03-03T01:39:12.901Z,10.10
2019-03-03T01:41:41.311Z,10.10
2019-03-03T01:44:09.606Z,10.00
2019-03-03T01:46:38.006Z,10.10
2019-03-03T01:49:06.363Z,10.10
2019-03-03T01:51:34.661Z,10.10
2019-03-03T01:54:02.968Z,10.10
2019-03-03T01:56:31.292Z,10.00
2019-03-03T01:58:59.606Z,10.00
2019-03-03T02:01:27.924Z,10.00
2019-03-03T02:03:56.281Z,10.00
2019-03-03T02:06:24.559Z,10.00
2019-03-03T02:08:52.867Z,10.00
2019-03-03T02:11:21.136Z,9.90
2019-03-03T02:13:49.410Z,9.90
2019-03-03T02:16:17.988Z,9.90
2019-03-03T02:18:46.275Z,9.90
2019-03-03T02:21:14.853Z,9.90
2019-03-03T02:23:43.197Z,9.80
2019-03-03T02:26:12.055Z,9.80
2019-03-03T02:28:40.331Z,9.80
2019-03-03T02:31:08.943Z,9.80
2019-03-03T02:33:37.276Z,9.80
2019-03-03T02:36:05.589Z,9.70
2019-03-03T02:38:34.041Z,9.70
2019-03-03T02:41:02.510Z,9.70
2019-03-03T02:43:34.059Z,9.70
2019-03-03T02:46:02.405Z,9.70
2019-03-03T02:48:31.060Z,9.70
2019-03-03T02:50:59.360Z,9.70
2019-03-03T02:53:27.661Z,9.70
2019-03-03T02:55:57.599Z,9.70
2019-03-03T02:58:25.976Z,9.70
2019-03-03T03:00:58.627Z,9.60
2019-03-03T03:03:26.932Z,9.70
2019-03-03T03:05:56.860Z,9.70
2019-03-03T03:08:26.965Z,9.70
2019-03-03T03:10:59.790Z,9.70
2019-03-03T03:13:29.027Z,9.70
2019-03-03T03:15:58.951Z,9.70
2019-03-03T03:18:29.074Z,9.60
2019-03-03T03:21:15.309Z,9.70
2019-03-03T03:23:48.098Z,9.70
2019-03-03T03:26:26.397Z,9.70
2019-03-03T03:28:59.501Z,9.70
2019-03-03T03:31:29.438Z,9.70
2019-03-03T03:34:02.434Z,9.70
2019-03-03T03:36:47.749Z,9.80
2019-03-03T03:39:20.529Z,9.70
2019-03-03T03:41:50.613Z,9.80
2019-03-03T03:44:37.205Z,9.80
2019-03-03T03:47:07.141Z,9.80
2019-03-03T03:49:37.054Z,9.80
2019-03-03T03:52:07.223Z,9.80
2019-03-03T03:54:39.782Z,9.80
2019-03-03T03:57:19.010Z,9.80
2019-03-03T03:59:48.950Z,9.80
2019-03-03T04:02:24.896Z,9.80
2019-03-03T04:05:11.154Z,9.90
2019-03-03T04:07:41.078Z,9.80
2019-03-03T04:10:17.503Z,9.80
2019-03-03T04:12:50.426Z,9.90
2019-03-03T04:15:19.657Z,9.90
2019-03-03T04:17:52.573Z,9.90
2019-03-03T04:20:21.812Z,9.90
2019-03-03T04:22:51.759Z,9.80
2019-03-03T04:25:39.777Z,9.80
2019-03-03T04:28:15.527Z,9.80
2019-03-03T04:30:48.428Z,9.80
2019-03-03T04:33:17.846Z,9.80
2019-03-03T04:35:47.786Z,9.80
2019-03-03T04:38:17.731Z,9.80
2019-03-03T04:40:47.959Z,9.80
2019-03-03T04:43:20.444Z,9.80
2019-03-03T04:45:56.223Z,9.80
2019-03-03T04:48:28.631Z,9.80
2019-03-03T04:51:34.281Z,9.80
2019-03-03T04:54:07.129Z,9.80
2019-03-03T04:56:36.376Z,9.90
2019-03-03T04:59:21.382Z,9.80
2019-03-03T05:01:54.277Z,9.80
2019-03-03T05:04:23.517Z,9.80
2019-03-03T05:06:56.323Z,9.80
2019-03-03T05:09:26.375Z,9.80
2019-03-03T05:12:30.586Z,9.80
2019-03-03T05:15:00.517Z,9.90
2019-03-03T05:17:30.468Z,9.90
2019-03-03T05:20:00.434Z,9.90
2019-03-03T05:22:28.702Z,10.00
2019-03-03T05:24:56.984Z,10.00
2019-03-03T05:27:25.275Z,10.00
2019-03-03T05:29:53.579Z,10.10
2019-03-03T05:32:21.869Z,10.10
2019-03-03T05:34:50.243Z,10.10
2019-03-03T05:37:18.539Z,10.20
2019-03-03T05:39:46.820Z,10.20
2019-03-03T05:42:15.115Z,10.20
2019-03-03T05:44:43.411Z,10.20
2019-03-03T05:47:11.733Z,10.20
2019-03-03T05:49:40.090Z,10.10
2019-03-03T05:52:08.376Z,10.10
2019-03-03T05:54:36.752Z,10.10
2019-03-03T05:57:05.034Z,10.10
2019-03-03T05:59:33.320Z,10.00
2019-03-03T06:02:01.624Z,10.00
2019-03-03T06:04:29.917Z,10.00
2019-03-03T06:06:58.213Z,10.00
2019-03-03T06:09:26.537Z,9.90
2019-03-03T06:11:54.827Z,10.00
2019-03-03T06:14:23.112Z,10.00
2019-03-03T06:16:51.469Z,10.00
2019-03-03T06:19:19.775Z,10.00
2019-03-03T06:21:48.083Z,9.90
2019-03-03T06:24:16.481Z,10.00
2019-03-03T06:26:44.764Z,9.90
2019-03-03T06:29:13.280Z,10.00
2019-03-03T06:31:41.598Z,9.90
2019-03-03T06:34:09.877Z,9.90
2019-03-03T06:36:38.154Z,9.90
2019-03-03T06:39:07.460Z,9.90
2019-03-03T06:41:35.741Z,9.90
2019-03-03T06:44:04.019Z,9.90
2019-03-03T06:46:32.333Z,9.90
2019-03-03T06:49:00.616Z,9.90
2019-03-03T06:51:28.889Z,9.90
2019-03-03T06:53:57.212Z,9.90
2019-03-03T06:56:25.659Z,9.90
2019-03-03T06:58:53.931Z,9.90
2019-03-03T07:01:22.311Z,9.90
2019-03-03T07:03:50.710Z,9.90
2019-03-03T07:06:19.018Z,9.90
2019-03-03T07:08:47.358Z,9.90
2019-03-03T07:11:15.660Z,10.00
2019-03-03T07:13:43.939Z,10.00
2019-03-03T07:16:12.297Z,10.00
2019-03-03T07:18:40.651Z,10.00
2019-03-03T07:21:11.179Z,10.00
2019-03-03T07:23:39.519Z,10.00
2019-03-03T07:26:07.817Z,10.00
2019-03-03T07:28:36.100Z,10.00
2019-03-03T07:31:04.408Z,10.00
2019-03-03T07:33:33.071Z,10.00
2019-03-03T07:36:01.376Z,10.10
2019-03-03T07:38:29.663Z,10.10
2019-03-03T07:40:57.951Z,10.00
2019-03-03T07:43:26.273Z,10.10
2019-03-03T07:45:54.624Z,10.10
2019-03-03T07:48:22.927Z,10.10
2019-03-03T07:50:51.238Z,10.10
2019-03-03T07:53:19.693Z,10.10
2019-03-03T07:55:48.209Z,10.10
2019-03-03T07:58:16.513Z,10.10
2019-03-03T08:00:44.792Z,10.10
2019-03-03T08:03:16.013Z,10.10
2019-03-03T08:05:44.331Z,10.20
2019-03-03T08:08:12.637Z,10.10
2019-03-03T08:10:40.924Z,10.20
2019-03-03T08:13:09.752Z,10.20
2019-03-03T08:15:38.170Z,10.20
2019-03-03T08:18:06.531Z,10.20
2019-03-03T08:20:34.849Z,10.20
2019-03-03T08:23:03.142Z,10.20
2019-03-03T08:25:31.429Z,10.30
2019-03-03T08:27:59.736Z,10.20
2019-03-03T08:30:28.023Z,10.30
2019-03-03T08:32:56.311Z,10.30
2019-03-03T08:35:26.818Z,10.30
2019-03-03T08:37:55.100Z,10.40
2019-03-03T08:40:23.395Z,10.40
2019-03-03T08:42:53.349Z,10.40
2019-03-03T08:45:41.386Z,10.40
2019-03-03T08:48:11.361Z,10.50
2019-03-03T08:50:50.554Z,10.50
2019-03-03T08:53:23.468Z,10.50
2019-03-03T08:55:52.715Z,10.50
2019-03-03T08:58:31.425Z,10.50
2019-03-03T09:01:01.367Z,10.50
2019-03-03T09:03:37.143Z,10.50
2019-03-03T09:06:07.090Z,10.50
2019-03-03T09:08:37.160Z,10.60
2019-03-03T09:11:10.428Z,10.60
2019-03-03T09:13:49.072Z,10.60
2019-03-03T09:16:19.023Z,10.60
2019-03-03T09:18:54.568Z,10.60
2019-03-03T09:21:33.445Z,10.60
2019-03-03T09:24:06.249Z,10.60
2019-03-03T09:26:52.124Z,10.60
2019-03-03T09:29:22.068Z,10.60
2019-03-03T09:32:10.285Z,10.60
2019-03-03T09:34:49.334Z,10.60
2019-03-03T09:37:19.464Z,10.70
2019-03-03T09:40:09.488Z,10.70
2019-03-03T09:42:46.267Z,10.80
2019-03-03T09:45:28.152Z,10.80
2019-03-03T09:48:01.149Z,10.80
2019-03-03T09:50:31.142Z,10.80
2019-03-03T09:53:17.934Z,10.90
2019-03-03T09:55:51.244Z,10.90
2019-03-03T09:58:21.175Z,10.90
2019-03-03T10:00:54.129Z,11.00
2019-03-03T10:03:40.754Z,11.00
2019-03-03T10:06:28.727Z,11.00
2019-03-03T10:09:01.506Z,11.10
2019-03-03T10:11:40.524Z,11.10
2019-03-03T10:14:22.309Z,11.20
2019-03-03T10:17:08.581Z,11.20
2019-03-03T10:19:38.549Z,11.30
2019-03-03T10:22:26.990Z,11.30
2019-03-03T10:25:12.701Z,11.40
2019-03-03T10:27:54.230Z,11.40
2019-03-03T10:30:33.103Z,11.40
2019-03-03T10:33:03.081Z,11.40
2019-03-03T10:35:49.242Z,11.40
2019-03-03T10:38:22.098Z,11.40
2019-03-03T10:41:09.614Z,11.40
2019-03-03T10:43:48.292Z,11.40
2019-03-03T10:46:34.607Z,11.40
2019-03-03T10:49:07.614Z,11.40
2019-03-03T10:51:55.834Z,11.40
2019-03-03T10:54:28.716Z,11.40
2019-03-03T10:57:00.681Z,11.40
2019-03-03T10:59:42.603Z,11.40
2019-03-03T11:02:24.595Z,11.40
2019-03-03T11:04:57.196Z,11.40
2019-03-03T11:07:33.157Z,11.40
2019-03-03T11:10:08.879Z,11.40
2019-03-03T11:12:39.087Z,11.40
2019-03-03T11:15:30.646Z,11.40
2019-03-03T11:18:14.099Z,11.40
2019-03-03T11:20:47.287Z,11.40
2019-03-03T11:23:20.061Z,11.40
2019-03-03T11:25:50.035Z,11.40
2019-03-03T11:28:29.158Z,11.40
2019-03-03T11:30:59.153Z,11.50
2019-03-03T11:33:32.175Z,11.50
2019-03-03T11:36:02.267Z,11.50
2019-03-03T11:38:38.218Z,11.50
2019-03-03T11:41:10.986Z,11.50
2019-03-03T11:43:40.923Z,11.50
2019-03-03T11:46:23.164Z,11.50
2019-03-03T11:48:53.134Z,11.50
2019-03-03T11:51:32.098Z,11.40
2019-03-03T11:54:07.827Z,11.40
2019-03-03T11:56:37.874Z,11.40
2019-03-03T11:59:07.856Z,11.50
2019-03-03T12:01:54.054Z,11.50
2019-03-03T12:04:24.043Z,11.50
2019-03-03T12:06:53.965Z,11.50
2019-03-03T12:09:23.935Z,11.50
2019-03-03T12:12:10.049Z,11.50
2019-03-03T12:14:40.026Z,11.50
2019-03-03T12:17:12.628Z,11.50
2019-03-03T12:19:45.618Z,11.50
2019-03-03T12:22:15.611Z,11.50
2019-03-03T12:24:57.527Z,11.50
2019-03-03T12:27:44.071Z,11.50
2019-03-03T12:30:23.005Z,11.50
2019-03-03T12:33:02.030Z,11.50
2019-03-03T12:35:35.337Z,11.40
2019-03-03T12:38:07.976Z,11.40
2019-03-03T12:40:40.374Z,11.40
2019-03-03T12:43:13.024Z,11.40
2019-03-03T12:45:48.904Z,11.40
2019-03-03T12:48:18.861Z,11.40
2019-03-03T12:51:00.908Z,11.40
2019-03-03T12:53:30.902Z,11.40
2019-03-03T12:56:13.120Z,11.40
2019-03-03T12:58:55.120Z,11.40
2019-03-03T13:01:31.765Z,11.40
2019-03-03T13:04:10.499Z,11.40
2019-03-03T13:06:56.568Z,11.40
2019-03-03T13:09:29.462Z,11.40
2019-03-03T13:12:01.865Z,11.40
2019-03-03T13:14:44.017Z,11.40
2019-03-03T13:17:13.973Z,11.40
2019-03-03T13:19:53.100Z,11.40
2019-03-03T13:22:32.305Z,11.40
2019-03-03T13:25:05.219Z,11.40
2019-03-03T13:27:34.475Z,11.50
2019-03-03T13:30:10.105Z,11.40
2019-03-03T13:32:46.107Z,11.40
2019-03-03T13:35:25.032Z,11.50
2019-03-03T13:38:07.095Z,11.50
2019-03-03T13:40:40.106Z,11.50
2019-03-03T13:43:08.388Z,11.60
2019-03-03T13:45:36.744Z,11.60
2019-03-03T13:48:05.066Z,11.60
2019-03-03T13:50:33.497Z,11.60
2019-03-03T13:53:01.866Z,11.60
2019-03-03T13:55:30.580Z,11.60
2019-03-03T13:57:58.939Z,11.60
2019-03-03T14:00:27.230Z,11.60
2019-03-03T14:02:55.548Z,11.60
2019-03-03T14:05:23.973Z,11.60
2019-03-03T14:07:52.285Z,11.60
2019-03-03T14:10:20.687Z,11.70
2019-03-03T14:12:49.005Z,11.60
2019-03-03T14:15:18.967Z,11.60
2019-03-03T14:17:47.372Z,11.60
2019-03-03T14:20:20.105Z,11.60
2019-03-03T14:22:48.666Z,11.60
2019-03-03T14:25:18.635Z,11.60
2019-03-03T14:27:46.990Z,11.50
2019-03-03T14:30:23.683Z,11.60
2019-03-03T14:32:52.021Z,11.60
2019-03-03T14:35:20.359Z,11.60
2019-03-03T14:37:48.683Z,11.70
2019-03-03T14:40:19.794Z,11.70
2019-03-03T14:42:48.121Z,11.70
2019-03-03T14:45:17.730Z,11.80
2019-03-03T14:47:46.032Z,11.80
2019-03-03T14:50:16.926Z,11.80
2019-03-03T14:52:46.930Z,11.80
2019-03-03T14:55:17.822Z,11.80
2019-03-03T14:57:46.191Z,11.80
2019-03-03T15:00:18.888Z,11.70
2019-03-03T15:02:47.236Z,11.80
2019-03-03T15:05:15.616Z,11.80
2019-03-03T15:07:45.751Z,11.80
2019-03-03T15:10:13.964Z,11.80
2019-03-03T15:12:42.297Z,11.70
2019-03-03T15:15:13.866Z,11.80
2019-03-03T15:17:42.215Z,11.80
2019-03-03T15:20:10.551Z,11.80
2019-03-03T15:22:38.843Z,11.80
2019-03-03T15:25:09.640Z,11.80
2019-03-03T15:27:37.928Z,11.80
2019-03-03T15:30:17.935Z,11.80
2019-03-03T15:32:46.262Z,11.80
2019-03-03T15:35:14.814Z,11.80
2019-03-03T15:37:43.127Z,11.80
2019-03-03T15:40:17.050Z,11.90
2019-03-03T15:42:45.423Z,11.80
2019-03-03T15:45:19.686Z,11.80
2019-03-03T15:47:47.983Z,11.90
2019-03-03T15:50:17.347Z,11.90
2019-03-03T15:52:45.865Z,11.90
2019-03-03T15:55:17.419Z,11.90
2019-03-03T15:57:45.726Z,11.90
2019-03-03T16:00:22.604Z,11.90
2019-03-03T16:02:51.101Z,12.00
2019-03-03T16:05:20.081Z,12.00
2019-03-03T16:07:48.403Z,12.00
2019-03-03T16:10:21.613Z,12.00
2019-03-03T16:12:49.938Z,12.10
2019-03-03T16:15:19.925Z,12.10
2019-03-03T16:17:48.201Z,12.10
2019-03-03T16:20:23.971Z,12.10
2019-03-03T16:22:52.265Z,12.10
2019-03-03T16:25:24.314Z,12.10
2019-03-03T16:27:52.694Z,12.10
2019-03-03T16:30:22.225Z,12.10
2019-03-03T16:32:50.683Z,12.10
2019-03-03T16:35:19.085Z,12.10
2019-03-03T16:37:47.439Z,12.10
2019-03-03T16:40:17.907Z,12.00
2019-03-03T16:42:46.411Z,12.10
2019-03-03T16:45:15.850Z,12.00
2019-03-03T16:47:44.277Z,12.00
2019-03-03T16:50:14.801Z,12.00
2019-03-03T16:52:43.086Z,12.00
2019-03-03T16:55:13.515Z,12.00
2019-03-03T16:57:41.919Z,12.00
2019-03-03T17:00:24.434Z,12.00
2019-03-03T17:02:56.039Z,12.00
2019-03-03T17:05:25.517Z,12.00
2019-03-03T17:07:54.165Z,12.00
2019-03-03T17:10:22.473Z,12.00
2019-03-03T17:12:50.770Z,11.90
2019-03-03T17:15:27.035Z,11.90
2019-03-03T17:17:55.497Z,11.90
2019-03-03T17:20:23.809Z,12.00
2019-03-03T17:22:52.129Z,11.90
2019-03-03T17:25:27.873Z,11.90
2019-03-03T17:27:56.242Z,11.90
2019-03-03T17:30:25.745Z,11.90
2019-03-03T17:32:54.080Z,12.00
2019-03-03T17:35:22.476Z,12.00
2019-03-03T17:37:50.783Z,12.00
2019-03-03T17:40:25.228Z,12.00
2019-03-03T17:42:53.621Z,12.00
2019-03-03T17:45:23.153Z,12.00
2019-03-03T17:47:51.845Z,12.00
2019-03-03T17:50:22.170Z,12.00
2019-03-03T17:52:50.480Z,12.00
2019-03-03T17:55:18.929Z,12.00
2019-03-03T17:57:47.325Z,12.10
2019-03-03T18:00:21.657Z,12.10
2019-03-03T18:02:50.355Z,12.10
2019-03-03T18:05:19.400Z,12.10
2019-03-03T18:07:47.955Z,12.10
2019-03-03T18:10:16.496Z,12.00
2019-03-03T18:12:44.859Z,11.90
2019-03-03T18:15:14.546Z,11.80
2019-03-03T18:17:42.869Z,11.70
2019-03-03T18:20:16.693Z,11.70
2019-03-03T18:22:45.020Z,11.70
2019-03-03T18:25:15.331Z,11.60
2019-03-03T18:27:43.694Z,11.60
2019-03-03T18:30:23.144Z,11.60
2019-03-03T18:32:51.511Z,11.60
2019-03-03T18:35:19.834Z,11.60
2019-03-03T18:37:48.300Z,11.70
2019-03-03T18:40:19.198Z,11.70
2019-03-03T18:42:47.735Z,11.70
2019-03-03T18:45:18.336Z,11.80
2019-03-03T18:47:46.713Z,11.80
2019-03-03T18:50:18.430Z,11.80
2019-03-03T18:52:46.967Z,11.80
2019-03-03T18:55:15.299Z,11.90
2019-03-03T18:57:45.349Z,11.90
2019-03-03T19:00:16.495Z,11.90
2019-03-03T19:02:44.986Z,11.90
2019-03-03T19:05:13.347Z,12.00
2019-03-03T19:07:41.734Z,12.00
2019-03-03T19:10:12.568Z,12.00
2019-03-03T19:12:41.055Z,12.10
2019-03-03T19:15:12.420Z,12.10
2019-03-03T19:17:40.850Z,12.20
2019-03-03T19:20:11.504Z,12.10
2019-03-03T19:22:40.696Z,12.10
2019-03-03T19:25:11.392Z,12.10
2019-03-03T19:27:40.923Z,12.10
2019-03-03T19:30:17.785Z,12.10
2019-03-03T19:32:47.573Z,12.10
2019-03-03T19:35:15.903Z,12.10
2019-03-03T19:37:44.195Z,12.20
2019-03-03T19:40:13.408Z,12.20
2019-03-03T19:42:41.720Z,12.20
2019-03-03T19:45:19.671Z,12.20
2019-03-03T19:47:47.958Z,12.20
2019-03-03T19:50:16.426Z,12.20
2019-03-03T19:52:44.731Z,12.20
2019-03-03T19:55:15.164Z,12.20
2019-03-03T19:57:43.474Z,12.20
2019-03-03T20:00:17.990Z,12.10
2019-03-03T20:02:46.597Z,12.10
2019-03-03T20:05:14.925Z,12.10
2019-03-03T20:07:43.216Z,12.10
2019-03-03T20:10:14.398Z,12.10
2019-03-03T20:12:42.683Z,12.10
2019-03-03T20:15:11.065Z,12.20
2019-03-03T20:17:41.393Z,12.20
2019-03-03T20:20:12.323Z,12.20
2019-03-03T20:22:40.608Z,12.20
2019-03-03T20:25:09.665Z,12.20
2019-03-03T20:27:38.283Z,12.20
2019-03-03T20:30:12.436Z,12.20
2019-03-03T20:32:40.829Z,12.20
2019-03-03T20:35:12.435Z,12.20
2019-03-03T20:37:40.749Z,12.20
2019-03-03T20:40:11.517Z,12.20
2019-03-03T20:42:39.872Z,12.30
2019-03-03T20:45:23.460Z,12.30
2019-03-03T20:47:51.792Z,12.30
2019-03-03T20:50:20.975Z,12.30
2019-03-03T20:52:50.029Z,12.20
2019-03-03T20:55:22.572Z,12.30
2019-03-03T20:57:50.916Z,12.30
2019-03-03T21:00:26.793Z,12.30
2019-03-03T21:02:55.073Z,12.40
2019-03-03T21:05:23.424Z,12.40
2019-03-03T21:07:52.246Z,12.40
2019-03-03T21:10:36.495Z,12.40
2019-03-03T21:13:04.834Z,12.40
2019-03-03T21:15:33.114Z,12.40
2019-03-03T21:18:01.417Z,12.40
2019-03-03T21:20:29.729Z,12.50
2019-03-03T21:22:58.025Z,12.50
2019-03-03T21:25:26.367Z,12.50
2019-03-03T21:27:54.834Z,12.50
2019-03-03T21:30:24.576Z,12.50
2019-03-03T21:32:53.060Z,12.50
2019-03-03T21:35:21.598Z,12.50
2019-03-03T21:37:49.874Z,12.50
2019-03-03T21:40:22.326Z,12.50
2019-03-03T21:42:50.621Z,12.50
2019-03-03T21:45:20.453Z,12.50
2019-03-03T21:47:48.747Z,12.60
2019-03-03T21:50:19.825Z,12.60
2019-03-03T21:52:48.166Z,12.50
2019-03-03T21:55:16.509Z,12.60
2019-03-03T21:57:44.816Z,12.50
2019-03-03T22:00:22.117Z,12.50
2019-03-03T22:02:50.467Z,12.50
2019-03-03T22:05:18.833Z,12.50
2019-03-03T22:07:47.459Z,12.50
2019-03-03T22:10:15.759Z,12.60
2019-03-03T22:12:44.038Z,12.60
2019-03-03T22:15:13.355Z,12.60
2019-03-03T22:17:41.758Z,12.60
2019-03-03T22:20:10.887Z,12.60
2019-03-03T22:22:39.183Z,12.60
2019-03-03T22:25:13.996Z,12.60
2019-03-03T22:27:42.270Z,12.60
2019-03-03T22:30:13.060Z,12.70
2019-03-03T22:32:41.381Z,12.70
2019-03-03T22:35:09.739Z,12.70
2019-03-03T22:37:38.083Z,12.70
2019-03-03T22:40:11.939Z,12.70
2019-03-03T22:42:40.232Z,12.70
2019-03-03T22:45:13.922Z,12.70
2019-03-03T22:47:42.191Z,12.70
2019-03-03T22:50:12.916Z,12.70
2019-03-03T22:52:41.235Z,12.70
2019-03-03T22:55:13.723Z,12.70
2019-03-03T22:57:42.016Z,12.70
2019-03-03T23:00:44.570Z,12.70
2019-03-03T23:03:21.781Z,12.70
2019-03-03T23:06:02.132Z,12.70
2019-03-03T23:08:51.986Z,12.70
2019-03-03T23:11:31.905Z,12.80
2019-03-03T23:14:09.660Z,12.80
2019-03-03T23:17:02.282Z,12.80
2019-03-03T23:19:49.072Z,12.90
2019-03-03T23:22:38.905Z,12.90
2019-03-03T23:25:13.207Z,12.80
2019-03-03T23:27:41.600Z,12.80
2019-03-03T23:30:09.931Z,12.90
2019-03-03T23:32:38.207Z,12.90
2019-03-03T23:35:06.963Z,12.90
2019-03-03T23:37:35.282Z,12.90
2019-03-03T23:40:04.211Z,12.90
2019-03-03T23:42:32.501Z,12.90
2019-03-03T23:45:00.871Z,12.90
2019-03-03T23:47:29.165Z,12.90
2019-03-03T23:49:57.523Z,12.90
2019-03-03T23:52:25.833Z,12.90
2019-03-03T23:54:54.108Z,13.00
2019-03-03T23:57:23.432Z,12.90
2019-03-03T23:59:51.984Z,12.90
